< < Back
Terminal Aerodrome Forecast


Current Version              Previous Versions:   1  2  3  4  5  6  7  8  9  

Terminal Aerodrome Forecast

022
FTUS42 KFFC 070527
TAFMCN
TAF
KMCN 070527Z 0706/0806 35004KT P6SM SCT040 BKN250
     FM071000 33004KT P6SM SCT150
     FM071600 31011G17KT P6SM SCT250
     FM072200 29006KT P6SM SCT250=

Latest METAR

645
SAUS80 KWBC 072200 RRB
MTRMCN
METAR KMCN 072153Z 32011KT 10SM CLR 14/M05 A2999 RMK AO2 SLP154
T01391050


USA.gov is the U.S. government's official web portal to all federal, state and local government web resources and services.